This is the latest recevied weather packets stored in our database for station/object W5CMS-13. If no packets are shown the sender has not sent any weather packets the latest 10 day(s).
| Time | Temp. | Humidity | Pressure | Rain* | Wind** | Luminosity | Snow |
|---|---|---|---|---|---|---|---|
| 1777332017 | 32.22° C | 62% | 1006.7 hPa | 0 mm | - | - | - |
| 1777331416 | 32.22° C | 62% | 1006.6 hPa | 0 mm | - | - | - |
| 1777330816 | 32.22° C | 63% | 1006.5 hPa | 0 mm | - | - | - |
| 1777330216 | 32.22° C | 63% | 1006.4 hPa | 0 mm | - | - | - |
| 1777329617 | 32.22° C | 62% | 1006.6 hPa | 0 mm | - | - | - |
| 1777329016 | 32.22° C | 62% | 1006.4 hPa | 0 mm | - | - | - |
| 1777328416 | 33.33° C | 55% | 1006.3 hPa | 0 mm | - | - | - |
| 1777327816 | 33.33° C | 50% | 1006.4 hPa | 0 mm | - | - | - |
| 1777327217 | 33.33° C | 51% | 1006.4 hPa | 0 mm | - | - | - |
| 1777326616 | 33.89° C | 49% | 1006.5 hPa | 0 mm | - | - | - |
| 1777326016 | 34.44° C | 47% | 1006.6 hPa | 0 mm | - | - | - |
| 1777325418 | 33.89° C | 47% | 1006.6 hPa | 0 mm | - | - | - |
| 1777324817 | 34.44° C | 48% | 1006.6 hPa | 0 mm | - | - | - |
| 1777324216 | 33.33° C | 49% | 1006.6 hPa | 0 mm | - | - | - |
| 1777323617 | 33.33° C | 48% | 1006.6 hPa | 0 mm | - | - | - |
| 1777323016 | 33.89° C | 46% | 1006.7 hPa | 0 mm | - | - | - |
| 1777322416 | 33.89° C | 48% | 1006.7 hPa | 0 mm | - | - | - |
| 1777321817 | 34.44° C | 48% | 1006.9 hPa | 0 mm | - | - | - |
| 1777321217 | 33.89° C | 50% | 1007.1 hPa | 0 mm | - | - | - |
| 1777320617 | 33.89° C | 48% | 1007 hPa | 0 mm | - | - | - |
| 1777320017 | 33.89° C | 48% | 1007.1 hPa | 0 mm | - | - | - |
| 1777319417 | 33.33° C | 50% | 1007.1 hPa | 0 mm | - | - | - |
| 1777318816 | 33.33° C | 54% | 1007.2 hPa | 0 mm | - | - | - |
| 1777318216 | 33.33° C | 58% | 1007.2 hPa | 0 mm | - | - | - |
| 1777317616 | 32.78° C | 58% | 1007.2 hPa | 0 mm | - | - | - |
* Rain latest hour (hover to see other rain measurements)
** Current wind speed in m/s (hover to see current wind gust speed)